CLYO2: Little River nr Cloudy 5ENE

Data processed at Fri Apr 24 23:09:30 2015 Central Daylight Time


All information presented herein is the property of the government of the United States of America and may be revised or deleted at any time without prior notice.
Dissemination of this information without the expressed written consent of the Public Affairs Office, Tulsa District U.S. Army Corps of Engineers is strictly prohibited.
These data are gathered electronically and, as presented, have not undergone any form of quality control. These data are not guaranteed to be valid or correct.
Go to home page.
Go to station list.
Go to station map.

Downstream station:

Previous Day
Next Day
Current Day

Display graphics.
Display DCP transmissions.


    
    SHEF ID:       CLYO2     Little River nr Cloudy 5ENE
    STATION TYPE:  STREAM GAGE
    
                   PRECIP     STAGE  RIV-FLOW   VOLTAGE
                   INCHES      FEET       CFS     VOLTS
                     GOES      GOES      GOES      GOES
       (Cen)
    04/24 01:00      0.00      4.73       383     13.00
    04/24 02:00      0.00      4.72       377     13.00
    04/24 03:00      0.00      4.70       366     13.00
    04/24 04:00      0.00      4.70       366     13.00
    04/24 05:00      0.00      4.70       366     12.90
    04/24 06:00      0.00      4.69       360     12.90
    04/24 07:00      0.13      4.70       366     12.90
    04/24 08:00      0.00      4.70       366     12.80
    04/24 09:00      0.07      4.71       372     12.90
    04/24 10:00      0.07      4.71       372     13.10
    04/24 11:00      0.14      4.72       377     13.20
    04/24 12:00      0.14      4.71       372     13.20
    04/24 13:00      0.25      4.74       389     13.20
    04/24 14:00      0.25      4.78       414     13.40
    04/24 15:00      0.07      4.85       460     13.50
    04/24 16:00      0.33      5.01       583     13.70
    04/24 17:00      0.01      5.24       767     13.60
    04/24 18:00      0.16      5.49      1007     13.20
    04/24 19:00      0.05      5.85      1255     13.20
    04/24 20:00      0.01      6.35      1694     13.10
    04/24 21:00      0.09      6.81      2229     13.10
    04/24 22:00      0.00      7.25      2795     13.00
    04/24 23:00      0.00      7.48      3011     12.90
    04/25 00:00      ----      ----      ----      ----